Aeroporto :
LOGIN :

Iscrizione | Disclaimer

   EN    FR    IT 

 










Sommario :    VFR   VFR Marginale   IFR   IFR Intensivo   IFR Molto Intensivo
Visibilità : 
Base nubi : 
>= 8 km
>= 3000ft
5 / 8 km
1000 / 3000 ft
1500m / 5 km
500 / 1000 ft
800 / 1500m
200 / 500 ft
< 800m
< 200 ft
Simboli :   Temporali  Nebbia  Neve Forte  Precipitazioni Forti  Vento > 20 kt
SIGMETs :   Varie  Temporali  Ghiacco  Turbolenza  Onda orograficha  Ceneri Vulcaniche







- Altitudine del aeroporto : 2595 ft
- Codice IATA : SLM


LESA - Salamanca Matacan

ULTIMO METAR :
  • 121330Z 28007KT 9999 FEW014 05/01 Q1019

METARs OBSOLETI :
  • 121300Z 27007KT 240V310 9999 FEW014 05/00 Q1019
  • 121230Z 27006KT 230V300 9999 FEW014 04/01 Q1018
  • 121200Z 26007KT 230V290 9999 FEW014 04/01 Q1019
  • 121130Z 26007KT 230V290 9999 SCT013 03/00 Q1019
  • 121100Z 25006KT 220V280 9999 SCT014 03/00 Q1019

TAF TAF LESA
Valido dal 12 a 12 ore il 13 a 12 ore UTC


121100Z 1212/1312 26007KT CAVOK TX08/1312Z TN00/1306Z
Nessun NOTAM noto per questo aeroporto.
2 SIGMETs conosciuti per la FIR Madrid (LECM) :
 
Turbolenza severa
LECM SIGMET 5 VALID 121350/121700 LEVA
LECM MADRID FIR SEV TURB FCST E OF LINE N4411 W00601 - N3750 W00603 FL300/420 MOV E 25KT NC=
Turbolenza severa
LECM SIGMET 4 VALID 121300/121500 LEVA
LECM MADRID FIR/UIR SEV TURB FCST E OF LINE N36 W00540 - N4010 W001 FL200/300 MOV E 20KT NC=



MetMap, La meteo Aeronautica in un colpo d'occhio ! - Copyright ORBIFLY Dicembre 2007 - Disclaimer

ORBIFLY MET'MAP TEAM :

Programmazione e sviluppo : Alexandra Zaïnal
Concezione e sviluppo : Baudouin d'Aumeries
Co-Programmazione e sviluppo : Marc-Olivier Méhu
Supporto tecnico e logistico : Manuel Goepfert
Aiuto per la traduzione : Arnaldo La Scala

Contatto : metmap@orbifly.com




FONTI E CREDITI :

   NOAA